Latest Weather Observations for St Lawrence

IDQ60801

Issued at 9:32 am EST Sunday 17 February 2019 (issued every 10 minutes, with the page automatically refreshed every 10 minutes)

About weather observations | Map of weather stations | Latest weather observations for QLD | Other Formats
Station Details ID: 033210 Name: ST LAWRENCE Lat: -22.35 Lon: 149.52 Height: 9.19 m
Data from the previous 72 hours. | See also: Recent months at St Lawrence
Date/Time
EST
Temp
°C
App
Temp
°C
Dew
Point
°C
Rel
Hum
%
Delta-T
°C
Wind Press
QNH
hPa
Press
MSL
hPa
Rain since
9am
mm
Dir  Spd
km/h
Gust
km/h
Spd
kts
Gust
kts
17/09:30am 27.5 28.3 18.2 57 5.9 SSE 11 17 6 9 1013.5 1013.4 0.0
17/09:00am 27.2 28.4 19.0 61 5.3 SSE 11 17 6 9 1013.5 1013.4 0.0
17/08:30am 26.7 27.8 19.6 65 4.6 S 13 19 7 10 1013.4 1013.3 0.0
17/08:00am 25.6 26.1 19.3 68 4.0 S 15 20 8 11 1013.2 1013.1 0.0
17/07:30am 25.2 26.7 19.8 72 3.5 S 11 17 6 9 1013.0 1012.9 0.0
17/07:00am 23.6 26.2 20.1 81 2.3 S 6 9 3 5 1012.8 1012.7 0.0
17/06:30am 22.3 24.5 19.5 84 1.8 S 7 9 4 5 1012.5 1012.4 0.0
17/06:00am 21.7 25.1 19.3 86 1.5 CALM 0 6 0 3 1012.0 1011.9 0.0
17/05:30am 22.1 25.5 19.3 84 1.8 CALM 0 6 0 3 1011.8 1011.7 0.0
17/05:00am 22.6 24.9 19.4 82 2.0 S 6 7 3 4 1011.6 1011.5 0.0
17/04:30am 22.7 24.9 19.5 82 2.0 S 7 9 4 5 1011.5 1011.4 0.0
17/04:00am 22.5 26.0 19.5 83 1.9 CALM 0 0 0 0 1011.4 1011.3 0.0
17/03:30am 23.1 26.7 19.7 81 2.2 CALM 0 0 0 0 1011.1 1011.0 0.0
17/03:00am 23.1 26.7 19.7 81 2.2 CALM 0 0 0 0 1011.1 1011.0 0.0
17/02:30am 23.3 27.0 19.9 81 2.2 CALM 0 0 0 0 1011.3 1011.2 0.0
17/02:00am 23.4 26.9 19.5 79 2.5 CALM 0 0 0 0 1011.6 1011.5 0.0
17/01:30am 23.9 27.3 19.4 76 2.9 CALM 0 0 0 0 1011.9 1011.8 0.0
17/01:00am 24.6 28.0 19.4 73 3.3 CALM 0 0 0 0 1012.3 1012.2 0.0
17/12:30am 25.6 27.9 19.5 69 3.9 ESE 6 13 3 7 1012.7 1012.6 0.0
17/12:00am 26.0 28.2 19.6 68 4.1 E 7 13 4 7 1013.0 1012.9 0.0
 
Date/Time
EST
Temp
°C
App
Temp
°C
Dew
Point
°C
Rel
Hum
%
Delta-T
°C
Wind Press
QNH
hPa
Press
MSL
hPa
Rain since
9am
mm
Dir  Spd
km/h
Gust
km/h
Spd
kts
Gust
kts
16/11:30pm 26.3 28.3 19.2 65 4.6 E 7 13 4 7 1013.2 1013.1 0.0
16/11:00pm 26.5 28.4 18.9 63 4.9 E 7 13 4 7 1013.2 1013.1 0.0
16/10:30pm 26.6 28.9 19.5 65 4.6 E 6 9 3 5 1013.2 1013.1 0.0
16/10:00pm 26.8 29.1 19.4 64 4.8 E 6 11 3 6 1013.2 1013.1 0.0
16/09:30pm 27.0 28.8 19.6 64 4.8 E 9 15 5 8 1013.0 1012.9 0.0
16/09:00pm 27.1 27.7 19.4 62 5.0 ENE 15 22 8 12 1012.6 1012.5 0.0
16/08:30pm 27.0 28.5 20.6 68 4.2 ENE 13 19 7 10 1012.6 1012.5 0.0
16/08:00pm 27.0 28.4 20.3 66 4.4 ENE 13 19 7 10 1012.4 1012.3 0.0
16/07:30pm 27.3 29.2 21.3 69 4.0 NE 13 19 7 10 1011.8 1011.7 0.0
16/07:00pm 27.1 29.0 21.4 71 3.8 NE 13 19 7 10 1011.4 1011.3 0.0
16/06:30pm 27.4 29.0 21.4 70 4.0 NE 15 22 8 12 1011.1 1011.0 0.0
16/06:00pm 27.8 28.3 21.1 67 4.5 NE 20 26 11 14 1010.7 1010.6 0.0
16/05:30pm 28.2 28.6 21.0 65 4.8 NE 20 26 11 14 1010.6 1010.5 0.0
16/05:00pm 29.0 29.7 21.5 64 5.0 NE 20 28 11 15 1010.5 1010.4 0.0
16/04:30pm 28.7 28.9 22.0 67 4.5 NE 24 32 13 17 1010.6 1010.5 0.0
16/04:00pm 29.6 30.3 22.3 65 5.0 NE 22 33 12 18 1010.6 1010.5 0.0
16/03:30pm 29.4 30.3 21.9 64 5.1 NE 20 30 11 16 1010.7 1010.6 0.0
16/03:00pm 29.7 30.0 21.6 61 5.4 NE 22 35 12 19 1010.8 1010.7 0.0
16/02:30pm 31.2 31.7 20.8 54 6.9 NNE 19 24 10 13 1011.0 1010.9 0.0
16/02:00pm 30.7 31.9 20.6 54 6.7 NE 15 24 8 13 1011.4 1011.3 0.0
16/01:30pm 31.0 32.9 20.6 54 6.9 ENE 11 26 6 14 1012.1 1012.0 0.0
16/01:00pm 30.6 31.9 20.2 53 6.9 ENE 13 19 7 10 1012.7 1012.6 0.0
16/12:30pm 30.7 32.0 19.4 51 7.4 E 11 19 6 10 1013.3 1013.2 0.0
16/12:00pm 31.0 32.0 20.3 53 7.1 E 15 24 8 13 1013.9 1013.8 0.0
16/11:30am 30.6 32.7 20.2 53 6.9 SE 9 13 5 7 1014.2 1014.1 0.0
16/11:00am 29.9 32.2 20.7 57 6.1 SE 9 15 5 8 1014.6 1014.5 0.0
16/10:30am 29.2 31.5 19.8 57 6.2 S 7 13 4 7 1014.9 1014.8 0.0
16/10:00am 28.7 29.9 19.9 59 5.8 SSE 13 22 7 12 1015.3 1015.2 0.0
16/09:30am 27.9 29.4 19.7 61 5.3 SSE 11 19 6 10 1015.5 1015.4 0.0
16/09:00am 27.5 28.0 19.3 61 5.3 SSE 15 20 8 11 1015.4 1015.3 0.2
16/08:30am 27.1 27.8 19.7 64 4.8 SSE 15 22 8 12 1015.3 1015.2 0.2
16/08:00am 26.4 26.6 19.3 65 4.6 S 17 26 9 14 1015.3 1015.2 0.2
16/07:30am 25.3 26.4 19.7 71 3.6 S 13 20 7 11 1015.0 1014.9 0.2
16/07:00am 24.6 26.0 20.3 77 2.8 S 13 19 7 10 1014.9 1014.8 0.2
16/06:30am 24.6 26.5 20.5 78 2.7 S 11 17 6 9 1014.4 1014.3 0.2
16/06:00am 24.0 26.4 20.9 83 2.0 S 9 11 5 6 1014.0 1013.9 0.2
16/05:30am 23.7 26.7 20.8 84 1.9 S 6 7 3 4 1013.7 1013.6 0.2
16/05:00am 24.3 28.2 21.2 83 2.0 S 2 9 1 5 1013.4 1013.3 0.2
16/04:30am 23.8 28.1 21.1 85 1.8 CALM 0 0 0 0 1013.2 1013.1 0.2
16/04:00am 24.3 27.3 21.2 83 2.0 SSE 7 9 4 5 1013.0 1012.9 0.2
16/03:30am 24.5 27.5 21.2 82 2.2 SSE 7 9 4 5 1012.9 1012.8 0.2
16/03:00am 24.7 28.8 21.6 83 2.1 SSE 2 9 1 5 1013.0 1012.9 0.2
16/02:30am 25.0 29.5 21.5 81 2.3 CALM 0 0 0 0 1013.0 1012.9 0.2
16/02:00am 25.7 29.9 21.8 79 2.6 SE 2 7 1 4 1013.3 1013.2 0.2
16/01:30am 25.4 29.1 21.5 79 2.6 SSE 4 7 2 4 1013.4 1013.3 0.2
16/01:00am 25.4 29.3 21.1 77 2.8 E 2 7 1 4 1013.7 1013.6 0.2
16/12:30am 26.0 29.0 21.2 75 3.2 E 7 11 4 6 1014.0 1013.9 0.2
16/12:00am 25.5 29.9 21.4 78 2.7 CALM 0 0 0 0 1014.3 1014.2 0.2
 
Date/Time
EST
Temp
°C
App
Temp
°C
Dew
Point
°C
Rel
Hum
%
Delta-T
°C
Wind Press
QNH
hPa
Press
MSL
hPa
Rain since
9am
mm
Dir  Spd
km/h
Gust
km/h
Spd
kts
Gust
kts
15/11:30pm 26.1 29.3 21.3 75 3.2 ESE 6 7 3 4 1014.3 1014.2 0.2
15/11:00pm 25.9 30.3 21.3 76 3.0 CALM 0 0 0 0 1014.5 1014.4 0.2
15/10:30pm 25.7 30.3 21.8 79 2.6 CALM 0 0 0 0 1014.5 1014.4 0.2
15/10:00pm 26.3 30.8 21.5 75 3.2 CALM 0 0 0 0 1014.5 1014.4 0.2
15/09:30pm 27.0 30.3 21.5 72 3.7 E 6 7 3 4 1014.4 1014.3 0.2
15/09:00pm 27.3 30.5 21.6 71 3.8 E 7 15 4 8 1014.2 1014.1 0.2
15/08:30pm 27.7 30.9 21.7 70 4.0 ENE 7 13 4 7 1013.8 1013.7 0.2
15/08:00pm 28.2 31.4 21.7 68 4.4 ENE 7 11 4 6 1013.5 1013.4 0.2
15/07:30pm 28.6 31.4 21.6 66 4.7 E 9 17 5 9 1012.9 1012.8 0.2
15/07:00pm 29.1 31.0 21.3 62 5.2 E 13 19 7 10 1012.6 1012.5 0.2
15/06:30pm 29.6 31.3 21.0 60 5.7 E 13 22 7 12 1012.3 1012.2 0.2
15/06:00pm 30.4 32.4 21.5 59 6.0 E 13 22 7 12 1012.0 1011.9 0.2
15/05:30pm 30.4 32.3 22.8 64 5.2 NNE 17 22 9 12 1011.8 1011.7 0.2
15/05:00pm 30.7 33.0 22.8 62 5.4 NNE 15 22 8 12 1011.6 1011.5 0.2
15/04:30pm 31.2 33.0 22.5 60 5.9 N 17 22 9 12 1011.5 1011.4 0.2
15/04:00pm 30.8 32.5 22.4 61 5.7 N 17 24 9 13 1011.4 1011.3 0.2
15/03:30pm 31.3 32.6 22.3 58 6.1 NNE 19 30 10 16 1011.4 1011.3 0.2
15/03:00pm 32.3 33.8 22.7 57 6.6 NNE 19 24 10 13 1011.4 1011.3 0.2
15/02:30pm 31.6 33.2 22.9 60 6.0 NNE 19 26 10 14 1011.8 1011.7 0.2
15/02:00pm 31.3 32.6 22.6 60 5.9 NNE 20 30 11 16 1011.9 1011.8 0.2
15/01:30pm 31.4 33.2 23.2 61 5.6 NE 19 30 10 16 1012.3 1012.2 0.0
15/01:00pm 29.8 32.9 23.5 69 4.3 ENE 13 22 7 12 1012.8 1012.7 0.0
15/12:30pm 30.0 32.7 23.4 67 4.5 E 15 28 8 15 1013.3 1013.2 0.0
15/12:00pm 30.9 33.5 21.9 58 6.1 E 11 20 6 11 1013.5 1013.4 0.0
15/11:30am 30.7 34.4 22.6 62 5.5 SE 7 13 4 7 1014.0 1013.9 0.0
15/11:00am 30.1 32.5 22.3 63 5.3 SSE 13 20 7 11 1014.6 1014.5 0.0
15/10:30am 29.5 32.0 21.7 63 5.2 SSE 11 17 6 9 1014.8 1014.7 0.0
15/10:00am 29.9 32.6 22.1 63 5.3 SE 11 19 6 10 1015.0 1014.9 0.0
15/09:30am 28.9 31.4 21.7 65 4.8 SSE 11 17 6 9 1014.9 1014.8 0.0
15/09:00am 28.8 31.1 21.3 64 5.0 ESE 11 19 6 10 1014.7 1014.6 1.6
15/08:30am 28.1 30.5 21.6 68 4.3 SE 11 17 6 9 1014.5 1014.4 1.6
15/08:00am 28.1 31.4 21.9 69 4.2 SSE 7 13 4 7 1014.5 1014.4 1.6
15/07:30am 27.2 31.1 22.6 76 3.1 SSW 6 11 3 6 1014.0 1013.9 1.6
15/07:00am 26.1 30.8 22.6 81 2.4 SSW 2 7 1 4 1013.8 1013.7 1.6
15/06:30am 25.6 30.6 22.5 83 2.1 CALM 0 7 0 4 1013.6 1013.5 1.6
15/06:00am 25.6 30.5 22.3 82 2.2 CALM 0 0 0 0 1013.3 1013.2 1.6
15/05:30am 25.0 28.5 21.9 83 2.1 ESE 6 7 3 4 1013.0 1012.9 1.6
15/05:00am 25.5 29.0 21.8 80 2.5 ESE 6 7 3 4 1012.6 1012.5 1.6
15/04:30am 26.0 29.2 21.7 77 2.9 E 7 9 4 5 1012.3 1012.2 1.6
15/04:00am 26.4 29.7 21.8 76 3.1 E 7 13 4 7 1012.2 1012.1 1.6
15/03:30am 26.4 29.4 22.0 77 2.9 E 9 15 5 8 1012.0 1011.9 1.6
15/03:00am 26.1 29.8 22.6 81 2.4 ESE 7 11 4 6 1011.9 1011.8 1.6
15/02:30am 26.4 30.1 22.5 79 2.6 E 7 13 4 7 1011.9 1011.8 1.6
15/02:00am 26.6 30.1 22.9 80 2.5 E 9 13 5 7 1011.9 1011.8 1.6
15/01:30am 25.5 29.4 23.0 86 1.7 SE 7 11 4 6 1012.0 1011.9 1.6
15/01:00am 25.4 30.6 22.9 86 1.7 CALM 0 0 0 0 1012.1 1012.0 1.6
15/12:30am 24.9 29.8 22.4 86 1.7 CALM 0 0 0 0 1012.3 1012.2 1.6
15/12:00am 24.9 29.8 22.4 86 1.7 CALM 0 0 0 0 1012.2 1012.1 1.6
 
Date/Time
EST
Temp
°C
App
Temp
°C
Dew
Point
°C
Rel
Hum
%
Delta-T
°C
Wind Press
QNH
hPa
Press
MSL
hPa
Rain since
9am
mm
Dir  Spd
km/h
Gust
km/h
Spd
kts
Gust
kts
14/11:30pm 25.1 30.0 22.4 85 1.8 CALM 0 0 0 0 1012.6 1012.5 1.6
14/11:00pm 25.1 30.2 22.6 86 1.7 CALM 0 0 0 0 1012.7 1012.6 1.6
14/10:30pm 24.5 29.2 22.0 86 1.7 CALM 0 0 0 0 1012.4 1012.3 1.6
14/10:00pm 24.5 29.2 22.0 86 1.7 CALM 0 0 0 0 1012.3 1012.2 1.6
14/09:30pm 24.7 29.5 22.2 86 1.7 CALM 0 0 0 0 1012.4 1012.3 1.6
14/09:00pm 24.4 29.1 21.9 86 1.7 CALM 0 6 0 3 1011.8 1011.7 1.6
14/08:30pm 24.6 28.6 22.1 86 1.7 SE 4 7 2 4 1011.5 1011.4 1.6
14/08:00pm 24.6 29.2 21.7 84 1.9 CALM 0 0 0 0 1011.1 1011.0 1.6
14/07:30pm 25.1 28.0 21.8 82 2.2 N 9 15 5 8 1010.1 1010.0 1.6
14/07:00pm 24.4 25.6 21.5 84 1.9 NNE 17 26 9 14 1010.0 1009.9 1.6
14/06:30pm 24.1 24.8 20.4 80 2.4 ESE 17 30 9 16 1010.6 1010.5 1.6
14/06:00pm 28.9 30.7 24.2 76 3.3 NE 22 32 12 17 1009.7 1009.6 0.0
14/05:30pm 29.8 30.9 23.7 70 4.2 NE 24 35 13 19 1008.6 1008.5 0.0
14/05:00pm 30.6 31.7 23.0 64 5.2 NNE 22 30 12 16 1007.5 1007.4 0.0
14/04:30pm 31.3 32.7 22.9 61 5.8 NE 20 28 11 15 1007.2 1007.1 0.0
14/04:00pm 31.8 33.2 22.8 59 6.2 NE 20 26 11 14 1007.0 1006.9 0.0
14/03:30pm 32.3 33.9 23.3 59 6.2 NE 20 26 11 14 1006.9 1006.8 0.0
14/03:00pm 32.9 34.8 22.7 55 7.0 NNE 17 24 9 13 1007.1 1007.0 0.0
14/02:30pm 33.6 35.9 22.7 53 7.5 NE 15 22 8 12 1007.3 1007.2 0.0
14/02:00pm 33.4 35.8 22.2 52 7.7 NNE 13 20 7 11 1007.4 1007.3 0.0
14/01:30pm 33.4 36.0 21.9 51 7.8 N 11 19 6 10 1007.7 1007.6 0.0
14/01:00pm 33.0 36.3 21.8 51 7.6 NE 7 15 4 8 1008.2 1008.1 0.0
14/12:30pm 32.5 35.9 22.0 54 7.1 NE 7 15 4 8 1008.5 1008.4 0.0
14/12:00pm 31.5 34.8 22.5 59 6.2 NE 9 17 5 9 1008.8 1008.7 0.0
14/11:30am 31.2 34.1 21.7 57 6.4 E 9 17 5 9 1009.1 1009.0 0.0
14/11:00am 30.9 33.6 22.8 62 5.6 NE 13 24 7 13 1009.2 1009.1 0.0
14/10:30am 30.4 32.3 22.8 64 5.2 NNE 17 22 9 12 1009.1 1009.0 0.0
14/10:00am 30.2 33.4 23.1 65 4.9 NE 11 17 6 9 1009.2 1009.1 0.0

Other Formats:

Comma delimited format used in spreadsheet applications
http://www.bom.gov.au/fwo/IDQ60801/IDQ60801.95369.axf

JavaScript Object Notation format (JSON) in row-major order
http://www.bom.gov.au/fwo/IDQ60801/IDQ60801.95369.json